Time;durP1;ratioP1;P1;durP2;ratioP2;P2;SDS_P1;SDS_P2;PMS_P1;PMS_P2;Temp;Humidity;BMP_temperature;BMP_pressure;BME280_temperature;BME280_humidity;BME280_pressure;Samples;Min_cycle;Max_cycle;Signal;HPM_P1;HPM_P2
2021/07/13 00:01:38;;;;;;;5.90;5.60;;;;;;;;;;5086353;28;24804;-53
2021/07/13 00:04:03;;;;;;;6.40;6.00;;;;;;;;;;5087078;28;24427;-54
2021/07/13 00:06:28;;;;;;;6.20;5.80;;;;;;;;;;5096939;28;24463;-53
2021/07/13 00:08:53;;;;;;;6.10;5.70;;;;;;;;;;5084112;28;24417;-53
2021/07/13 00:11:19;;;;;;;5.80;5.50;;;;;;;;;;5088056;28;24537;-53
2021/07/13 00:13:44;;;;;;;5.43;5.13;;;;;;;;;;5068537;28;24415;-53
2021/07/13 00:16:10;;;;;;;6.20;5.80;;;;;;;;;;5090944;28;24968;-53
2021/07/13 00:18:37;;;;;;;5.72;5.43;;;;;;;;;;5069545;28;24964;-53
2021/07/13 00:21:03;;;;;;;5.30;5.00;;;;;;;;;;5092714;28;24434;-53
2021/07/13 00:23:28;;;;;;;5.77;5.47;;;;;;;;;;5081075;28;24436;-53
2021/07/13 00:25:53;;;;;;;5.70;5.35;;;;;;;;;;5092700;28;24406;-53
2021/07/13 00:28:18;;;;;;;5.30;5.00;;;;;;;;;;5071199;28;24484;-53
2021/07/13 00:30:43;;;;;;;5.40;5.10;;;;;;;;;;5079785;28;24963;-53
2021/07/13 00:33:09;;;;;;;5.87;5.57;;;;;;;;;;5080644;28;24529;-53
2021/07/13 00:35:34;;;;;;;6.00;5.60;;;;;;;;;;5071350;28;24422;-53
2021/07/13 00:37:59;;;;;;;5.28;4.90;;;;;;;;;;5088825;28;24982;-53
2021/07/13 00:40:24;;;;;;;6.15;5.85;;;;;;;;;;5091755;27;24434;-54
2021/07/13 00:42:51;;;;;;;6.00;5.60;;;;;;;;;;5077424;28;24414;-54
2021/07/13 00:45:16;;;;;;;5.65;5.15;;;;;;;;;;5067964;28;24480;-54
2021/07/13 00:47:41;;;;;;;5.13;4.83;;;;;;;;;;5089439;28;24975;-54
2021/07/13 00:50:07;;;;;;;6.20;5.80;;;;;;;;;;5090696;28;24429;-54
2021/07/13 00:52:32;;;;;;;5.63;5.32;;;;;;;;;;5067511;28;25034;-54
2021/07/13 00:54:58;;;;;;;5.20;4.90;;;;;;;;;;5082373;28;24419;-53
2021/07/13 00:57:23;;;;;;;5.70;5.40;;;;;;;;;;5079863;28;24505;-53
2021/07/13 00:59:49;;;;;;;5.60;5.30;;;;;;;;;;5081281;28;25082;-54
2021/07/13 01:02:15;;;;;;;6.00;5.60;;;;;;;;;;5099126;28;24424;-54
2021/07/13 01:04:41;;;;;;;6.50;6.10;;;;;;;;;;5078407;28;25395;-55
2021/07/13 01:07:09;;;;;;;6.10;5.70;;;;;;;;;;5089068;28;24530;-54
2021/07/13 01:09:47;;;;;;;6.05;5.55;;;;;;;;;;5097062;28;24520;-54
2021/07/13 01:12:18;;;;;;;6.57;6.07;;;;;;;;;;5089223;28;24521;-54
2021/07/13 01:14:51;;;;;;;6.65;6.25;;;;;;;;;;5065647;28;24426;-55
2021/07/13 01:17:21;;;;;;;6.05;5.63;;;;;;;;;;5080270;28;25072;-53
2021/07/13 01:20:01;;;;;;;6.65;6.05;;;;;;;;;;5079238;28;24402;-53
2021/07/13 01:22:47;;;;;;;5.90;5.57;;;;;;;;;;5075480;28;24524;-53
2021/07/13 01:25:15;;;;;;;6.50;6.10;;;;;;;;;;5073812;28;24441;-53
2021/07/13 01:27:50;;;;;;;6.10;5.60;;;;;;;;;;5086586;28;24647;-54
2021/07/13 01:30:19;;;;;;;6.10;5.70;;;;;;;;;;5083706;28;24473;-54
2021/07/13 01:32:47;;;;;;;6.67;6.17;;;;;;;;;;5076380;28;24453;-53
2021/07/13 01:35:18;;;;;;;6.87;6.27;;;;;;;;;;5068255;28;24453;-53
2021/07/13 01:37:46;;;;;;;6.50;6.10;;;;;;;;;;5073692;28;24418;-53
2021/07/13 01:40:11;;;;;;;6.40;5.90;;;;;;;;;;5094624;28;24533;-53
2021/07/13 01:42:39;;;;;;;6.10;5.70;;;;;;;;;;5088027;28;24560;-53
2021/07/13 01:45:05;;;;;;;6.00;5.60;;;;;;;;;;5076347;28;24463;-54
2021/07/13 01:47:31;;;;;;;5.72;5.32;;;;;;;;;;5082062;28;24417;-53
2021/07/13 01:49:57;;;;;;;6.00;5.50;;;;;;;;;;5084484;28;25029;-53
2021/07/13 01:52:22;;;;;;;5.97;5.68;;;;;;;;;;5087605;28;25003;-53
2021/07/13 01:54:48;;;;;;;5.95;5.63;;;;;;;;;;5083305;28;24537;-53
2021/07/13 01:57:13;;;;;;;5.80;5.40;;;;;;;;;;5082859;28;24780;-53
2021/07/13 01:59:44;;;;;;;5.43;5.03;;;;;;;;;;5087864;28;24976;-53
2021/07/13 02:02:10;;;;;;;5.50;5.10;;;;;;;;;;5086455;28;24414;-53
2021/07/13 02:04:36;;;;;;;5.45;5.15;;;;;;;;;;5081482;28;24717;-53
2021/07/13 02:07:03;;;;;;;5.75;5.35;;;;;;;;;;5092636;28;24418;-53
2021/07/13 02:09:28;;;;;;;6.15;5.75;;;;;;;;;;5090138;28;24409;-53
2021/07/13 02:11:55;;;;;;;6.30;5.90;;;;;;;;;;5085388;28;24549;-52
2021/07/13 02:14:20;;;;;;;5.90;5.40;;;;;;;;;;5075244;28;25294;-53
2021/07/13 02:16:46;;;;;;;6.23;5.83;;;;;;;;;;5091277;28;24529;-52
2021/07/13 02:19:12;;;;;;;6.15;5.72;;;;;;;;;;5090596;28;24410;-53
2021/07/13 02:21:37;;;;;;;5.90;5.40;;;;;;;;;;5074791;28;24410;-53
2021/07/13 02:24:02;;;;;;;5.80;5.40;;;;;;;;;;5090275;28;24425;-53
2021/07/13 02:26:37;;;;;;;5.50;5.20;;;;;;;;;;5080111;28;25041;-53
2021/07/13 02:29:06;;;;;;;5.97;5.57;;;;;;;;;;5074498;28;24423;-53
2021/07/13 02:31:34;;;;;;;6.10;5.70;;;;;;;;;;5076722;28;24561;-53
2021/07/13 02:33:59;;;;;;;6.40;5.80;;;;;;;;;;5085963;28;24419;-53
2021/07/13 02:36:29;;;;;;;6.50;5.90;;;;;;;;;;5070181;28;25005;-53
2021/07/13 02:38:57;;;;;;;6.30;5.70;;;;;;;;;;5087666;28;24442;-52
2021/07/13 02:41:23;;;;;;;6.55;6.05;;;;;;;;;;5080314;28;24416;-53
2021/07/13 02:43:48;;;;;;;5.80;5.40;;;;;;;;;;5098489;28;24509;-54
2021/07/13 02:46:14;;;;;;;6.40;5.80;;;;;;;;;;5079389;28;24987;-54
2021/07/13 02:48:40;;;;;;;7.10;6.50;;;;;;;;;;5069978;28;24462;-53
2021/07/13 02:51:06;;;;;;;5.90;5.50;;;;;;;;;;5081413;28;24411;-53
2021/07/13 02:53:31;;;;;;;6.10;5.70;;;;;;;;;;5090753;28;24479;-53
2021/07/13 02:55:57;;;;;;;6.13;5.63;;;;;;;;;;5077193;28;25231;-53
2021/07/13 02:58:22;;;;;;;5.45;5.15;;;;;;;;;;5089362;28;24439;-53
2021/07/13 03:00:48;;;;;;;6.20;5.70;;;;;;;;;;5075054;28;24951;-53
2021/07/13 03:03:14;;;;;;;5.83;5.53;;;;;;;;;;5077240;28;24900;-53
2021/07/13 03:05:40;;;;;;;7.05;6.55;;;;;;;;;;5086784;28;24468;-53
2021/07/13 03:08:06;;;;;;;6.40;5.90;;;;;;;;;;5081454;28;24470;-54
2021/07/13 03:10:31;;;;;;;8.70;8.00;;;;;;;;;;5074207;28;24423;-53
2021/07/13 03:12:57;;;;;;;7.13;6.63;;;;;;;;;;5072957;27;25128;-54
2021/07/13 03:15:23;;;;;;;16.23;14.93;;;;;;;;;;5076903;28;24446;-54
2021/07/13 03:17:49;;;;;;;7.10;6.60;;;;;;;;;;5067405;28;24434;-54
2021/07/13 03:20:14;;;;;;;5.40;5.10;;;;;;;;;;5090544;28;24402;-54
2021/07/13 03:22:41;;;;;;;6.23;5.83;;;;;;;;;;5075915;28;24413;-53
2021/07/13 03:25:08;;;;;;;7.13;6.53;;;;;;;;;;5090387;28;24428;-53
2021/07/13 03:27:33;;;;;;;6.30;5.90;;;;;;;;;;5093722;28;25031;-54
2021/07/13 03:30:00;;;;;;;5.60;5.20;;;;;;;;;;5077840;28;24608;-54
2021/07/13 03:32:26;;;;;;;6.18;5.57;;;;;;;;;;5077070;28;24465;-54
2021/07/13 03:34:51;;;;;;;5.65;5.28;;;;;;;;;;5066026;28;24933;-54
2021/07/13 03:37:18;;;;;;;5.30;5.00;;;;;;;;;;5077031;28;25217;-54
2021/07/13 03:39:43;;;;;;;6.13;5.60;;;;;;;;;;5086461;28;24414;-54
2021/07/13 03:42:08;;;;;;;5.90;5.40;;;;;;;;;;5086091;28;24480;-54
2021/07/13 03:44:34;;;;;;;5.77;5.33;;;;;;;;;;5091119;28;24583;-56
2021/07/13 03:46:59;;;;;;;6.00;5.60;;;;;;;;;;5078838;28;24503;-56
2021/07/13 03:49:25;;;;;;;6.40;5.97;;;;;;;;;;5081434;28;24422;-55
2021/07/13 03:51:50;;;;;;;5.90;5.40;;;;;;;;;;5090218;28;24441;-55
2021/07/13 03:54:16;;;;;;;6.20;5.70;;;;;;;;;;5094449;28;24409;-55
2021/07/13 03:56:42;;;;;;;5.53;5.03;;;;;;;;;;5095648;27;24410;-55
2021/07/13 03:59:08;;;;;;;5.00;4.70;;;;;;;;;;5093804;28;24517;-55
2021/07/13 04:01:33;;;;;;;5.73;5.33;;;;;;;;;;5089815;28;24463;-55
2021/07/13 04:03:59;;;;;;;4.70;4.40;;;;;;;;;;5101669;28;24485;-55
2021/07/13 04:06:24;;;;;;;6.10;5.60;;;;;;;;;;5100145;28;24962;-55
2021/07/13 04:08:49;;;;;;;5.50;5.00;;;;;;;;;;5087869;28;25114;-55
2021/07/13 04:11:14;;;;;;;4.20;4.00;;;;;;;;;;5073031;28;24419;-55
2021/07/13 04:13:40;;;;;;;5.50;5.00;;;;;;;;;;5090749;28;24430;-55
2021/07/13 04:16:05;;;;;;;5.10;4.70;;;;;;;;;;5106793;28;24494;-55
2021/07/13 04:18:30;;;;;;;4.80;4.40;;;;;;;;;;5088101;28;24429;-55
2021/07/13 04:20:55;;;;;;;4.50;4.20;;;;;;;;;;5088818;28;24409;-55
2021/07/13 04:23:20;;;;;;;4.30;4.10;;;;;;;;;;5088012;28;24581;-55
2021/07/13 04:25:46;;;;;;;4.47;4.17;;;;;;;;;;5100915;28;24500;-55
2021/07/13 04:28:11;;;;;;;3.75;3.45;;;;;;;;;;5089447;28;24990;-56
2021/07/13 04:30:37;;;;;;;4.33;3.93;;;;;;;;;;5091582;28;24443;-55
2021/07/13 04:33:02;;;;;;;3.83;3.53;;;;;;;;;;5105889;28;24426;-56
2021/07/13 04:35:27;;;;;;;4.10;3.70;;;;;;;;;;5091643;28;24418;-55
2021/07/13 04:37:52;;;;;;;4.13;3.73;;;;;;;;;;5088621;28;24401;-55
2021/07/13 04:40:17;;;;;;;4.40;4.10;;;;;;;;;;5092730;28;24437;-54
2021/07/13 04:42:42;;;;;;;3.78;3.53;;;;;;;;;;5089341;28;24424;-54
2021/07/13 04:45:08;;;;;;;3.40;3.10;;;;;;;;;;5096435;28;24439;-54
2021/07/13 04:47:33;;;;;;;5.50;4.80;;;;;;;;;;5091608;28;24421;-54
2021/07/13 04:49:58;;;;;;;4.30;4.00;;;;;;;;;;5088829;28;24490;-54
2021/07/13 04:52:23;;;;;;;4.77;4.37;;;;;;;;;;5094368;28;24785;-55
2021/07/13 04:54:48;;;;;;;4.03;3.72;;;;;;;;;;5097875;28;25052;-54
2021/07/13 04:57:14;;;;;;;4.50;4.20;;;;;;;;;;5101248;28;24560;-54
2021/07/13 04:59:39;;;;;;;4.10;3.80;;;;;;;;;;5088805;28;24406;-55
2021/07/13 05:02:04;;;;;;;4.22;3.83;;;;;;;;;;5092086;28;24403;-55
2021/07/13 05:04:29;;;;;;;3.40;3.20;;;;;;;;;;5080714;28;24467;-55
2021/07/13 05:06:54;;;;;;;3.50;3.30;;;;;;;;;;5099828;28;24447;-55
2021/07/13 05:09:20;;;;;;;3.67;3.43;;;;;;;;;;5095836;28;24525;-55
2021/07/13 05:11:45;;;;;;;3.73;3.10;;;;;;;;;;5091324;28;24429;-56
2021/07/13 05:14:10;;;;;;;4.32;3.47;;;;;;;;;;5068575;28;24952;-56
2021/07/13 05:16:35;;;;;;;3.70;3.40;;;;;;;;;;5091361;28;25030;-55
2021/07/13 05:19:01;;;;;;;3.70;3.50;;;;;;;;;;5093238;28;24467;-56
2021/07/13 05:21:26;;;;;;;3.58;3.38;;;;;;;;;;5090430;28;24773;-56
2021/07/13 05:23:51;;;;;;;3.30;3.10;;;;;;;;;;5066670;28;24406;-56
2021/07/13 05:26:18;;;;;;;3.47;3.27;;;;;;;;;;5067279;28;24485;-55
2021/07/13 05:28:43;;;;;;;3.75;3.40;;;;;;;;;;5092780;28;24424;-55
2021/07/13 05:31:08;;;;;;;3.60;3.30;;;;;;;;;;5084526;28;24426;-56
2021/07/13 05:33:33;;;;;;;3.80;3.50;;;;;;;;;;5088747;28;24474;-56
2021/07/13 05:35:58;;;;;;;3.30;3.00;;;;;;;;;;5087039;28;24421;-56
2021/07/13 05:38:23;;;;;;;3.20;3.00;;;;;;;;;;5093180;28;24479;-56
2021/07/13 05:40:49;;;;;;;3.83;3.53;;;;;;;;;;5095419;28;24421;-57
2021/07/13 05:43:14;;;;;;;3.60;3.30;;;;;;;;;;5072343;28;24426;-56
2021/07/13 05:45:39;;;;;;;3.10;2.80;;;;;;;;;;5072908;28;24579;-57
2021/07/13 05:48:05;;;;;;;3.80;3.60;;;;;;;;;;5080304;28;24488;-58
2021/07/13 05:50:30;;;;;;;3.53;3.23;;;;;;;;;;5078466;28;24789;-57
2021/07/13 05:52:57;;;;;;;3.70;3.40;;;;;;;;;;5068498;28;24979;-57
2021/07/13 05:55:23;;;;;;;3.20;3.00;;;;;;;;;;5078954;28;24446;-57
2021/07/13 05:57:48;;;;;;;3.60;3.30;;;;;;;;;;5077734;28;24505;-57
2021/07/13 06:00:14;;;;;;;3.03;2.90;;;;;;;;;;5065751;28;25057;-57
2021/07/13 06:02:39;;;;;;;3.40;3.10;;;;;;;;;;5065546;28;24732;-57
2021/07/13 06:05:04;;;;;;;3.40;3.10;;;;;;;;;;5084518;28;24414;-57
2021/07/13 06:07:29;;;;;;;3.43;3.23;;;;;;;;;;5087074;28;24427;-58
2021/07/13 06:09:56;;;;;;;3.30;3.10;;;;;;;;;;5065016;28;24521;-57
2021/07/13 06:12:21;;;;;;;3.10;2.90;;;;;;;;;;5075966;28;24448;-57
2021/07/13 06:14:46;;;;;;;3.40;3.20;;;;;;;;;;5095823;28;24436;-57
2021/07/13 06:17:11;;;;;;;3.40;3.10;;;;;;;;;;5094128;28;25145;-57
2021/07/13 06:19:36;;;;;;;3.30;3.10;;;;;;;;;;5083986;28;24529;-57
2021/07/13 06:22:02;;;;;;;3.80;3.10;;;;;;;;;;5083484;28;24390;-57
2021/07/13 06:24:28;;;;;;;3.78;3.47;;;;;;;;;;5093445;28;25029;-57
2021/07/13 06:26:54;;;;;;;2.88;2.67;;;;;;;;;;5083281;28;24405;-57
2021/07/13 06:29:19;;;;;;;3.00;2.80;;;;;;;;;;5080446;28;24422;-57
2021/07/13 06:31:44;;;;;;;3.93;3.17;;;;;;;;;;5085061;28;25034;-57
2021/07/13 06:34:11;;;;;;;3.60;3.40;;;;;;;;;;5093323;28;24421;-57
2021/07/13 06:36:36;;;;;;;3.45;3.17;;;;;;;;;;5094331;28;24506;-57
2021/07/13 06:39:01;;;;;;;3.30;3.00;;;;;;;;;;5092340;28;24497;-57
2021/07/13 06:41:26;;;;;;;3.30;3.00;;;;;;;;;;5091200;28;24420;-56
2021/07/13 06:43:51;;;;;;;3.85;3.55;;;;;;;;;;5093596;28;24432;-57
2021/07/13 06:46:17;;;;;;;3.90;3.10;;;;;;;;;;5097154;28;24810;-56
2021/07/13 06:48:42;;;;;;;3.20;3.00;;;;;;;;;;5091917;28;24449;-57
2021/07/13 06:51:07;;;;;;;3.30;3.10;;;;;;;;;;5090206;28;24429;-56
2021/07/13 06:53:32;;;;;;;3.57;3.37;;;;;;;;;;5085966;28;24414;-56
2021/07/13 06:55:57;;;;;;;3.00;2.90;;;;;;;;;;5089826;28;24440;-57
2021/07/13 06:58:22;;;;;;;3.25;3.05;;;;;;;;;;5091256;28;24418;-57
2021/07/13 07:00:47;;;;;;;3.58;3.28;;;;;;;;;;5104962;28;24413;-57
2021/07/13 07:03:13;;;;;;;3.33;3.13;;;;;;;;;;5100691;28;24975;-57
2021/07/13 07:05:40;;;;;;;3.63;3.33;;;;;;;;;;5090532;28;24460;-57
2021/07/13 07:08:05;;;;;;;3.38;3.17;;;;;;;;;;5089393;28;24397;-57
2021/07/13 07:10:31;;;;;;;3.30;3.00;;;;;;;;;;5089908;28;24927;-56
2021/07/13 07:12:56;;;;;;;3.20;3.00;;;;;;;;;;5089236;28;24406;-56
2021/07/13 07:15:21;;;;;;;3.60;3.40;;;;;;;;;;5089482;28;24499;-57
2021/07/13 07:17:52;;;;;;;3.78;3.47;;;;;;;;;;5087426;28;24430;-56
2021/07/13 07:20:21;;;;;;;4.50;3.80;;;;;;;;;;5089512;28;25266;-57
2021/07/13 07:22:47;;;;;;;3.90;3.60;;;;;;;;;;5089389;28;24394;-56
2021/07/13 07:25:12;;;;;;;5.00;4.10;;;;;;;;;;5089499;28;24773;-57
2021/07/13 07:27:38;;;;;;;4.88;4.57;;;;;;;;;;5087571;28;24416;-57
2021/07/13 07:30:06;;;;;;;4.07;3.87;;;;;;;;;;5072592;28;24419;-57
2021/07/13 07:32:31;;;;;;;4.38;4.18;;;;;;;;;;5068986;28;24503;-57
2021/07/13 07:34:56;;;;;;;4.30;4.10;;;;;;;;;;5068315;28;24510;-57
2021/07/13 07:37:21;;;;;;;4.35;4.13;;;;;;;;;;5068855;28;25068;-57
2021/07/13 07:39:46;;;;;;;4.20;4.00;;;;;;;;;;5069078;28;24422;-57
2021/07/13 07:42:11;;;;;;;4.00;3.80;;;;;;;;;;5070190;28;24442;-57
2021/07/13 07:44:36;;;;;;;4.50;4.20;;;;;;;;;;5068412;28;24992;-57
2021/07/13 07:47:02;;;;;;;4.63;4.30;;;;;;;;;;5068630;28;24437;-57
2021/07/13 07:49:27;;;;;;;4.50;4.20;;;;;;;;;;5068456;28;24937;-56
2021/07/13 07:51:52;;;;;;;5.00;4.70;;;;;;;;;;5082811;28;25228;-57
2021/07/13 07:54:17;;;;;;;4.85;4.45;;;;;;;;;;5088764;28;24414;-57
2021/07/13 07:56:42;;;;;;;5.00;4.70;;;;;;;;;;5088558;28;24440;-57
2021/07/13 07:59:07;;;;;;;5.00;4.70;;;;;;;;;;5088471;28;24681;-57
2021/07/13 08:01:33;;;;;;;5.30;5.00;;;;;;;;;;5088893;28;24832;-57
2021/07/13 08:03:58;;;;;;;5.67;5.37;;;;;;;;;;5086391;28;24578;-57
2021/07/13 08:06:23;;;;;;;5.30;5.00;;;;;;;;;;5088573;28;24428;-57
2021/07/13 08:08:48;;;;;;;5.20;4.80;;;;;;;;;;5088487;28;24386;-57
2021/07/13 08:11:13;;;;;;;5.77;5.37;;;;;;;;;;5086999;28;24521;-57
2021/07/13 08:13:39;;;;;;;5.55;5.15;;;;;;;;;;5088106;28;24475;-57
2021/07/13 08:16:04;;;;;;;6.40;6.00;;;;;;;;;;5088080;28;24432;-57
2021/07/13 08:18:29;;;;;;;6.40;6.00;;;;;;;;;;5088723;28;24386;-57
2021/07/13 08:20:54;;;;;;;6.10;5.70;;;;;;;;;;5086617;28;24402;-57
2021/07/13 08:23:19;;;;;;;5.70;5.40;;;;;;;;;;5087876;28;24931;-57
2021/07/13 08:25:45;;;;;;;6.77;6.37;;;;;;;;;;5088561;28;24401;-57
2021/07/13 08:28:10;;;;;;;7.38;6.88;;;;;;;;;;5088146;28;25274;-57
2021/07/13 08:30:35;;;;;;;6.90;6.40;;;;;;;;;;5078115;28;24984;-56
2021/07/13 08:33:00;;;;;;;7.50;7.10;;;;;;;;;;5067515;28;24419;-58
2021/07/13 08:35:25;;;;;;;7.90;7.30;;;;;;;;;;5067907;28;24821;-57
2021/07/13 08:37:51;;;;;;;7.03;6.60;;;;;;;;;;5067671;28;24387;-58
2021/07/13 08:40:17;;;;;;;7.70;7.20;;;;;;;;;;5070258;28;24820;-57
2021/07/13 08:42:42;;;;;;;7.00;6.60;;;;;;;;;;5087241;28;25302;-58
2021/07/13 08:45:09;;;;;;;7.30;6.90;;;;;;;;;;5087777;28;24406;-57
2021/07/13 08:47:35;;;;;;;8.30;7.80;;;;;;;;;;5087899;28;24459;-57
2021/07/13 08:50:00;;;;;;;8.35;7.70;;;;;;;;;;5080499;28;24434;-57
2021/07/13 08:52:26;;;;;;;8.20;7.50;;;;;;;;;;5067566;28;25222;-57
2021/07/13 08:54:51;;;;;;;7.57;7.07;;;;;;;;;;5087227;28;24473;-57
2021/07/13 08:57:16;;;;;;;8.30;7.70;;;;;;;;;;5087867;28;24481;-57
2021/07/13 08:59:41;;;;;;;7.25;6.78;;;;;;;;;;5085648;28;24386;-57
2021/07/13 09:02:07;;;;;;;8.77;8.17;;;;;;;;;;5087215;28;24452;-58
2021/07/13 09:04:33;;;;;;;8.02;7.53;;;;;;;;;;5087323;28;24406;-58
2021/07/13 09:06:58;;;;;;;7.70;7.30;;;;;;;;;;5087347;28;24394;-57
2021/07/13 09:09:24;;;;;;;8.10;7.60;;;;;;;;;;5083486;28;24426;-58
2021/07/13 09:12:04;;;;;;;7.97;7.40;;;;;;;;;;5067167;28;24430;-57
2021/07/13 09:14:48;;;;;;;8.18;7.68;;;;;;;;;;5066649;28;25013;-57
2021/07/13 09:17:25;;;;;;;8.55;7.95;;;;;;;;;;5066814;28;24970;-58
2021/07/13 09:20:05;;;;;;;8.20;7.70;;;;;;;;;;5069823;28;24449;-58
2021/07/13 09:22:30;;;;;;;8.38;7.78;;;;;;;;;;5087247;28;24968;-58
2021/07/13 09:24:56;;;;;;;7.80;7.30;;;;;;;;;;5086708;28;24502;-57
2021/07/13 09:27:22;;;;;;;7.35;6.95;;;;;;;;;;5087133;28;24386;-58
2021/07/13 09:29:48;;;;;;;7.80;7.30;;;;;;;;;;5087329;28;24486;-57
2021/07/13 09:32:17;;;;;;;7.57;7.00;;;;;;;;;;5085553;28;24547;-58
2021/07/13 09:34:51;;;;;;;7.75;7.25;;;;;;;;;;5086501;28;24422;-57
2021/07/13 09:37:21;;;;;;;7.80;7.20;;;;;;;;;;5087358;28;24475;-58
2021/07/13 09:40:00;;;;;;;7.20;6.80;;;;;;;;;;5087523;28;24482;-58
2021/07/13 09:42:26;;;;;;;7.53;7.03;;;;;;;;;;5085465;28;24397;-57
2021/07/13 09:44:51;;;;;;;7.50;7.10;;;;;;;;;;5086848;28;24390;-58
2021/07/13 09:47:26;;;;;;;7.60;7.10;;;;;;;;;;5087402;28;24936;-57
2021/07/13 09:49:51;;;;;;;7.05;6.65;;;;;;;;;;5086849;28;24757;-57
2021/07/13 09:52:22;;;;;;;8.07;7.57;;;;;;;;;;5087295;28;24437;-57
2021/07/13 09:54:47;;;;;;;7.03;6.60;;;;;;;;;;5084848;28;24410;-58
2021/07/13 09:57:16;;;;;;;7.57;7.00;;;;;;;;;;5086791;28;24422;-58
2021/07/13 09:59:42;;;;;;;7.00;6.50;;;;;;;;;;5086774;28;25106;-57
2021/07/13 10:02:08;;;;;;;7.00;6.60;;;;;;;;;;5086965;28;24414;-58
2021/07/13 10:04:35;;;;;;;7.40;7.00;;;;;;;;;;5086902;28;24394;-58
2021/07/13 10:07:03;;;;;;;7.63;7.23;;;;;;;;;;5086649;28;24990;-57
2021/07/13 10:09:31;;;;;;;8.10;7.50;;;;;;;;;;5090792;28;24449;-58
2021/07/13 10:11:56;;;;;;;7.22;6.82;;;;;;;;;;5090514;28;24979;-58
2021/07/13 10:14:22;;;;;;;7.23;6.83;;;;;;;;;;5090519;28;24440;-58
2021/07/13 10:16:47;;;;;;;6.80;6.40;;;;;;;;;;5090794;28;24512;-58
2021/07/13 10:19:12;;;;;;;7.60;7.13;;;;;;;;;;5088826;28;24421;-57
2021/07/13 10:21:38;;;;;;;6.65;6.20;;;;;;;;;;5090861;28;24807;-58
2021/07/13 10:24:03;;;;;;;7.97;7.47;;;;;;;;;;5090125;28;24972;-57
2021/07/13 10:26:46;;;;;;;7.50;7.00;;;;;;;;;;5090685;28;24432;-57
2021/07/13 10:29:30;;;;;;;7.75;7.25;;;;;;;;;;5090259;28;24406;-57
2021/07/13 10:31:55;;;;;;;7.97;7.37;;;;;;;;;;5088561;28;24956;-57
2021/07/13 10:34:39;;;;;;;7.40;6.90;;;;;;;;;;5088701;28;24421;-57
2021/07/13 10:37:23;;;;;;;7.40;7.00;;;;;;;;;;5090504;28;24932;-57
2021/07/13 10:39:48;;;;;;;7.18;6.78;;;;;;;;;;5090375;28;24443;-58
2021/07/13 10:42:33;;;;;;;8.00;7.50;;;;;;;;;;5090153;28;24405;-58
2021/07/13 10:45:10;;;;;;;7.47;7.07;;;;;;;;;;5087887;28;24426;-58
2021/07/13 10:47:35;;;;;;;8.48;7.88;;;;;;;;;;5090463;28;24776;-58
2021/07/13 10:50:15;;;;;;;7.30;6.90;;;;;;;;;;5089844;28;24932;-58
2021/07/13 10:52:53;;;;;;;8.63;8.02;;;;;;;;;;5089940;28;24453;-57
2021/07/13 10:55:30;;;;;;;7.20;6.70;;;;;;;;;;5090204;28;24401;-57
2021/07/13 10:58:10;;;;;;;6.72;6.32;;;;;;;;;;5088072;28;24459;-57
2021/07/13 11:00:44;;;;;;;7.88;7.38;;;;;;;;;;5090092;28;24391;-58
2021/07/13 11:03:32;;;;;;;7.20;6.80;;;;;;;;;;5089491;28;25171;-58
2021/07/13 11:06:04;;;;;;;7.10;6.70;;;;;;;;;;5089484;28;24753;-57
2021/07/13 11:08:50;;;;;;;6.65;6.25;;;;;;;;;;5087718;28;24402;-58
2021/07/13 11:11:18;;;;;;;7.50;7.00;;;;;;;;;;5088892;28;24418;-57
2021/07/13 11:13:46;;;;;;;7.40;7.00;;;;;;;;;;5088857;28;24517;-58
2021/07/13 11:16:12;;;;;;;7.30;6.80;;;;;;;;;;5089317;28;24390;-58
2021/07/13 11:18:38;;;;;;;6.70;6.30;;;;;;;;;;5089035;28;25032;-58
2021/07/13 11:21:13;;;;;;;7.25;6.78;;;;;;;;;;5087522;28;24516;-58
2021/07/13 11:23:38;;;;;;;7.00;6.60;;;;;;;;;;5089041;28;24421;-58
2021/07/13 11:26:04;;;;;;;6.67;6.27;;;;;;;;;;5089213;28;24394;-58
2021/07/13 11:28:29;;;;;;;7.20;6.60;;;;;;;;;;5089180;28;24378;-58
2021/07/13 11:30:54;;;;;;;7.20;6.70;;;;;;;;;;5089198;28;24401;-57
2021/07/13 11:33:25;;;;;;;7.00;6.60;;;;;;;;;;5087286;28;24448;-57
2021/07/13 11:35:51;;;;;;;7.40;6.90;;;;;;;;;;5088987;28;24379;-58
2021/07/13 11:38:22;;;;;;;6.60;6.20;;;;;;;;;;5089146;28;24389;-58
2021/07/13 11:41:06;;;;;;;6.80;6.40;;;;;;;;;;5089229;28;24765;-58
2021/07/13 11:43:31;;;;;;;6.73;6.33;;;;;;;;;;5088980;28;24394;-58
2021/07/13 11:46:08;;;;;;;7.20;6.80;;;;;;;;;;5087220;28;24468;-58
2021/07/13 11:48:34;;;;;;;7.10;6.70;;;;;;;;;;5088419;28;24430;-58
2021/07/13 11:50:59;;;;;;;7.25;6.85;;;;;;;;;;5089015;28;24467;-58
2021/07/13 11:53:24;;;;;;;7.40;6.90;;;;;;;;;;5088370;28;24436;-58
2021/07/13 11:55:59;;;;;;;8.03;7.40;;;;;;;;;;5088949;28;25167;-58
2021/07/13 11:58:25;;;;;;;7.28;6.88;;;;;;;;;;5086650;28;24502;-57
2021/07/13 12:00:50;;;;;;;7.10;6.70;;;;;;;;;;5088458;28;24473;-55
2021/07/13 12:03:25;;;;;;;7.67;7.17;;;;;;;;;;5088172;28;24510;-55
2021/07/13 12:06:07;;;;;;;7.35;6.85;;;;;;;;;;5088564;28;24417;-56
2021/07/13 12:08:32;;;;;;;7.28;6.78;;;;;;;;;;5086802;28;24448;-56
2021/07/13 12:10:58;;;;;;;7.80;7.30;;;;;;;;;;5088133;28;24439;-57
2021/07/13 12:13:23;;;;;;;7.57;7.07;;;;;;;;;;5087938;28;24418;-57
2021/07/13 12:15:48;;;;;;;7.80;7.30;;;;;;;;;;5088069;28;24866;-56
2021/07/13 12:18:13;;;;;;;8.30;7.80;;;;;;;;;;5086433;28;24417;-56
2021/07/13 12:20:39;;;;;;;8.03;7.53;;;;;;;;;;5087734;28;24418;-56
2021/07/13 12:23:04;;;;;;;7.40;6.80;;;;;;;;;;5087676;28;24418;-56
2021/07/13 12:25:31;;;;;;;7.50;7.00;;;;;;;;;;5087387;28;24414;-56
2021/07/13 12:28:10;;;;;;;7.37;6.87;;;;;;;;;;5087876;28;24397;-56
2021/07/13 12:30:35;;;;;;;7.75;7.25;;;;;;;;;;5085528;28;24992;-56
2021/07/13 12:33:01;;;;;;;7.47;6.97;;;;;;;;;;5087470;28;24470;-56
2021/07/13 12:35:27;;;;;;;7.57;7.18;;;;;;;;;;5087928;28;24935;-56
2021/07/13 12:37:53;;;;;;;7.15;6.65;;;;;;;;;;5087870;28;24456;-57
2021/07/13 12:40:18;;;;;;;6.93;6.53;;;;;;;;;;5075142;28;24414;-57
2021/07/13 12:42:46;;;;;;;6.93;6.43;;;;;;;;;;5067159;28;24476;-57
2021/07/13 12:45:24;;;;;;;7.50;6.90;;;;;;;;;;5067261;28;24987;-56
2021/07/13 12:47:49;;;;;;;7.40;6.80;;;;;;;;;;5072563;28;24418;-57
2021/07/13 12:50:22;;;;;;;7.40;7.00;;;;;;;;;;5087622;28;24463;-56
2021/07/13 12:53:08;;;;;;;7.50;7.10;;;;;;;;;;5087660;28;24490;-57
2021/07/13 12:55:37;;;;;;;7.80;7.30;;;;;;;;;;5087594;28;24394;-56
2021/07/13 12:58:12;;;;;;;7.20;6.80;;;;;;;;;;5085358;28;24406;-56
2021/07/13 13:00:38;;;;;;;8.32;7.82;;;;;;;;;;5087636;28;24443;-56
2021/07/13 13:03:08;;;;;;;8.00;7.47;;;;;;;;;;5087206;28;24482;-57
2021/07/13 13:05:34;;;;;;;8.13;7.50;;;;;;;;;;5087290;28;24410;-56
2021/07/13 13:08:00;;;;;;;8.00;7.40;;;;;;;;;;5086983;28;24964;-56
2021/07/13 13:10:28;;;;;;;8.20;7.70;;;;;;;;;;5085403;28;24488;-56
2021/07/13 13:12:54;;;;;;;7.70;7.20;;;;;;;;;;5086797;28;24964;-56
2021/07/13 13:15:22;;;;;;;8.10;7.50;;;;;;;;;;5087518;28;24487;-56
2021/07/13 13:17:47;;;;;;;8.30;7.80;;;;;;;;;;5087143;28;24491;-57
2021/07/13 13:20:12;;;;;;;8.38;7.88;;;;;;;;;;5087134;28;24410;-57
2021/07/13 13:22:44;;;;;;;8.30;7.80;;;;;;;;;;5085204;28;24429;-56
2021/07/13 13:25:09;;;;;;;7.85;7.25;;;;;;;;;;5087084;28;24421;-57
2021/07/13 13:27:34;;;;;;;7.70;7.20;;;;;;;;;;5087230;28;24494;-56
2021/07/13 13:29:59;;;;;;;8.30;7.80;;;;;;;;;;5082346;28;25230;-57
2021/07/13 13:32:25;;;;;;;8.07;7.57;;;;;;;;;;5067061;28;24426;-57
2021/07/13 13:34:50;;;;;;;7.50;7.00;;;;;;;;;;5066640;28;24528;-57
2021/07/13 13:37:22;;;;;;;7.90;7.40;;;;;;;;;;5067150;28;24394;-57
2021/07/13 13:39:47;;;;;;;7.50;7.10;;;;;;;;;;5066540;28;24429;-56
2021/07/13 13:42:12;;;;;;;7.60;7.20;;;;;;;;;;5070572;28;24441;-57
2021/07/13 13:44:37;;;;;;;7.60;7.10;;;;;;;;;;5070770;28;24394;-57
2021/07/13 13:47:02;;;;;;;7.40;6.93;;;;;;;;;;5080074;28;24884;-57
2021/07/13 13:49:28;;;;;;;7.50;7.00;;;;;;;;;;5091020;28;24413;-56
2021/07/13 13:51:53;;;;;;;7.80;7.30;;;;;;;;;;5074702;28;24978;-56
2021/07/13 13:54:18;;;;;;;7.40;6.90;;;;;;;;;;5070836;28;25048;-56
2021/07/13 13:56:43;;;;;;;7.65;7.15;;;;;;;;;;5070678;28;24444;-56
2021/07/13 13:59:08;;;;;;;7.47;7.07;;;;;;;;;;5069431;28;24947;-57
2021/07/13 14:01:33;;;;;;;7.70;7.20;;;;;;;;;;5079493;28;24444;-56
2021/07/13 14:03:59;;;;;;;7.70;7.20;;;;;;;;;;5090693;28;24398;-56
2021/07/13 14:06:24;;;;;;;7.40;6.90;;;;;;;;;;5090561;28;24489;-56
2021/07/13 14:08:49;;;;;;;7.90;7.40;;;;;;;;;;5090915;28;24540;-56
2021/07/13 14:11:15;;;;;;;7.30;6.80;;;;;;;;;;5089036;28;24415;-57
2021/07/13 14:13:43;;;;;;;7.75;7.15;;;;;;;;;;5090549;28;25091;-57
2021/07/13 14:16:08;;;;;;;8.27;7.68;;;;;;;;;;5089924;28;24933;-57
2021/07/13 14:18:34;;;;;;;7.60;7.10;;;;;;;;;;5090721;28;24417;-57
2021/07/13 14:20:59;;;;;;;7.60;7.10;;;;;;;;;;5090477;28;24520;-57
2021/07/13 14:23:25;;;;;;;7.30;6.80;;;;;;;;;;5074214;28;24491;-57
2021/07/13 14:25:50;;;;;;;7.45;6.95;;;;;;;;;;5069904;28;24394;-57
2021/07/13 14:28:15;;;;;;;7.83;7.23;;;;;;;;;;5070385;28;24799;-57
2021/07/13 14:30:41;;;;;;;7.97;7.23;;;;;;;;;;5070308;28;24406;-57
2021/07/13 14:33:06;;;;;;;7.38;6.97;;;;;;;;;;5078720;28;24430;-57
2021/07/13 14:35:31;;;;;;;7.90;7.40;;;;;;;;;;5090475;28;24398;-57
2021/07/13 14:37:56;;;;;;;7.10;6.70;;;;;;;;;;5090144;28;24394;-57
2021/07/13 14:40:21;;;;;;;7.80;7.30;;;;;;;;;;5090362;28;24992;-57
2021/07/13 14:42:47;;;;;;;8.20;7.50;;;;;;;;;;5083900;28;24812;-57